sensor_id;sensor_type;location;lat;lon;timestamp;temperature;humidity
4183;DHT22;2105;52.300;9.182;2024-03-23T00:53:34;7.70;99.90
4183;DHT22;2105;52.300;9.182;2024-03-23T00:56:01;7.70;99.90
4183;DHT22;2105;52.300;9.182;2024-03-23T00:58:26;7.70;99.90
4183;DHT22;2105;52.300;9.182;2024-03-23T01:00:53;7.60;99.90
4183;DHT22;2105;52.300;9.182;2024-03-23T01:03:19;7.70;99.90
4183;DHT22;2105;52.300;9.182;2024-03-23T01:08:15;7.60;99.90
4183;DHT22;2105;52.300;9.182;2024-03-23T01:10:43;7.60;99.90
4183;DHT22;2105;52.300;9.182;2024-03-23T01:13:08;7.70;99.90
4183;DHT22;2105;52.300;9.182;2024-03-23T01:15:35;7.70;99.90
4183;DHT22;2105;52.300;9.182;2024-03-23T01:18:01;7.60;99.90
4183;DHT22;2105;52.300;9.182;2024-03-23T01:20:27;7.70;99.90
4183;DHT22;2105;52.300;9.182;2024-03-23T01:22:53;7.60;99.90
4183;DHT22;2105;52.300;9.182;2024-03-23T01:25:20;7.60;99.90
4183;DHT22;2105;52.300;9.182;2024-03-23T01:27:47;7.60;99.90
4183;DHT22;2105;52.300;9.182;2024-03-23T01:30:13;7.60;99.90
4183;DHT22;2105;52.300;9.182;2024-03-23T01:32:39;7.60;99.90
4183;DHT22;2105;52.300;9.182;2024-03-23T01:35:06;7.60;99.90
4183;DHT22;2105;52.300;9.182;2024-03-23T01:37:32;7.70;99.90
4183;DHT22;2105;52.300;9.182;2024-03-23T01:39:58;7.70;99.90
4183;DHT22;2105;52.300;9.182;2024-03-23T01:42:24;7.70;99.90
4183;DHT22;2105;52.300;9.182;2024-03-23T01:44:52;7.60;99.90
4183;DHT22;2105;52.300;9.182;2024-03-23T01:47:18;7.60;99.90
4183;DHT22;2105;52.300;9.182;2024-03-23T01:49:44;7.60;99.90
4183;DHT22;2105;52.300;9.182;2024-03-23T01:52:10;7.60;99.90
4183;DHT22;2105;52.300;9.182;2024-03-23T01:54:37;7.60;99.90
4183;DHT22;2105;52.300;9.182;2024-03-23T01:57:03;7.60;99.90
4183;DHT22;2105;52.300;9.182;2024-03-23T01:59:31;7.60;99.90
4183;DHT22;2105;52.300;9.182;2024-03-23T02:01:59;7.60;99.90
4183;DHT22;2105;52.300;9.182;2024-03-23T02:04:26;7.70;99.90
4183;DHT22;2105;52.300;9.182;2024-03-23T02:06:52;7.60;99.90
4183;DHT22;2105;52.300;9.182;2024-03-23T02:09:18;7.60;99.90
4183;DHT22;2105;52.300;9.182;2024-03-23T02:11:44;7.60;99.90
4183;DHT22;2105;52.300;9.182;2024-03-23T02:14:11;7.60;99.90
4183;DHT22;2105;52.300;9.182;2024-03-23T02:16:36;7.50;99.90
4183;DHT22;2105;52.300;9.182;2024-03-23T02:19:04;7.40;99.90
4183;DHT22;2105;52.300;9.182;2024-03-23T02:21:30;7.40;99.90
4183;DHT22;2105;52.300;9.182;2024-03-23T02:23:58;7.40;99.90
4183;DHT22;2105;52.300;9.182;2024-03-23T02:26:24;7.40;99.90
4183;DHT22;2105;52.300;9.182;2024-03-23T02:28:51;7.40;99.90
4183;DHT22;2105;52.300;9.182;2024-03-23T02:31:17;7.40;99.90
4183;DHT22;2105;52.300;9.182;2024-03-23T02:33:43;7.30;99.90
4183;DHT22;2105;52.300;9.182;2024-03-23T02:36:09;7.40;99.90
4183;DHT22;2105;52.300;9.182;2024-03-23T02:38:36;7.30;99.90
4183;DHT22;2105;52.300;9.182;2024-03-23T02:41:04;7.30;99.90
4183;DHT22;2105;52.300;9.182;2024-03-23T02:43:31;7.30;99.90
4183;DHT22;2105;52.300;9.182;2024-03-23T02:45:57;7.30;99.90
4183;DHT22;2105;52.300;9.182;2024-03-23T02:48:23;7.30;99.90
4183;DHT22;2105;52.300;9.182;2024-03-23T02:50:49;7.20;99.90
4183;DHT22;2105;52.300;9.182;2024-03-23T02:53:16;7.30;99.90
4183;DHT22;2105;52.300;9.182;2024-03-23T02:55:42;7.30;99.90
4183;DHT22;2105;52.300;9.182;2024-03-23T02:58:11;7.30;99.90
4183;DHT22;2105;52.300;9.182;2024-03-23T03:00:36;7.30;99.90
4183;DHT22;2105;52.300;9.182;2024-03-23T03:03:03;7.30;99.90
4183;DHT22;2105;52.300;9.182;2024-03-23T03:05:29;7.30;99.90
4183;DHT22;2105;52.300;9.182;2024-03-23T03:07:56;7.30;99.90
4183;DHT22;2105;52.300;9.182;2024-03-23T03:10:22;7.30;99.90
4183;DHT22;2105;52.300;9.182;2024-03-23T03:12:48;7.30;99.90
4183;DHT22;2105;52.300;9.182;2024-03-23T03:15:16;7.20;99.90
4183;DHT22;2105;52.300;9.182;2024-03-23T03:17:43;7.30;99.90
4183;DHT22;2105;52.300;9.182;2024-03-23T03:20:09;7.30;99.90
4183;DHT22;2105;52.300;9.182;2024-03-23T03:22:39;7.30;99.90
4183;DHT22;2105;52.300;9.182;2024-03-23T03:25:06;7.30;99.90
4183;DHT22;2105;52.300;9.182;2024-03-23T03:27:33;7.30;99.90
4183;DHT22;2105;52.300;9.182;2024-03-23T03:29:59;7.30;99.90
4183;DHT22;2105;52.300;9.182;2024-03-23T03:32:28;7.30;99.90
4183;DHT22;2105;52.300;9.182;2024-03-23T03:34:54;7.20;99.90
4183;DHT22;2105;52.300;9.182;2024-03-23T03:37:21;7.20;99.90
4183;DHT22;2105;52.300;9.182;2024-03-23T03:39:46;7.20;99.90
4183;DHT22;2105;52.300;9.182;2024-03-23T03:42:13;7.10;99.90
4183;DHT22;2105;52.300;9.182;2024-03-23T03:44:40;7.10;99.90
4183;DHT22;2105;52.300;9.182;2024-03-23T03:47:06;7.10;99.90
4183;DHT22;2105;52.300;9.182;2024-03-23T03:49:34;7.10;99.90
4183;DHT22;2105;52.300;9.182;2024-03-23T03:52:00;7.10;99.90
4183;DHT22;2105;52.300;9.182;2024-03-23T03:54:27;7.10;99.90
4183;DHT22;2105;52.300;9.182;2024-03-23T03:56:53;7.10;99.90
4183;DHT22;2105;52.300;9.182;2024-03-23T03:59:20;7.00;99.90
4183;DHT22;2105;52.300;9.182;2024-03-23T04:01:46;7.00;99.90
4183;DHT22;2105;52.300;9.182;2024-03-23T04:04:12;7.00;99.90
4183;DHT22;2105;52.300;9.182;2024-03-23T04:06:40;7.00;99.90
4183;DHT22;2105;52.300;9.182;2024-03-23T04:09:07;7.00;99.90
4183;DHT22;2105;52.300;9.182;2024-03-23T04:11:33;7.00;99.90
4183;DHT22;2105;52.300;9.182;2024-03-23T04:13:59;6.90;99.90
4183;DHT22;2105;52.300;9.182;2024-03-23T04:16:27;7.00;99.90
4183;DHT22;2105;52.300;9.182;2024-03-23T04:18:53;7.00;99.90
4183;DHT22;2105;52.300;9.182;2024-03-23T04:21:19;7.00;99.90
4183;DHT22;2105;52.300;9.182;2024-03-23T04:23:47;6.90;99.90
4183;DHT22;2105;52.300;9.182;2024-03-23T04:26:13;6.90;99.90
4183;DHT22;2105;52.300;9.182;2024-03-23T04:28:39;6.90;99.90
4183;DHT22;2105;52.300;9.182;2024-03-23T04:31:05;6.80;99.90
4183;DHT22;2105;52.300;9.182;2024-03-23T04:33:32;6.80;99.90
4183;DHT22;2105;52.300;9.182;2024-03-23T04:35:57;6.80;99.90
4183;DHT22;2105;52.300;9.182;2024-03-23T04:38:24;6.70;99.90
4183;DHT22;2105;52.300;9.182;2024-03-23T04:40:55;6.70;99.90
4183;DHT22;2105;52.300;9.182;2024-03-23T04:43:22;6.70;99.90
4183;DHT22;2105;52.300;9.182;2024-03-23T04:45:49;6.70;99.90
4183;DHT22;2105;52.300;9.182;2024-03-23T04:48:15;6.60;99.90
4183;DHT22;2105;52.300;9.182;2024-03-23T04:50:42;6.50;99.90
4183;DHT22;2105;52.300;9.182;2024-03-23T04:53:08;6.50;99.90
4183;DHT22;2105;52.300;9.182;2024-03-23T04:55:35;6.40;99.90
4183;DHT22;2105;52.300;9.182;2024-03-23T04:58:04;6.50;99.90
4183;DHT22;2105;52.300;9.182;2024-03-23T05:00:29;6.60;99.90
4183;DHT22;2105;52.300;9.182;2024-03-23T05:02:56;6.70;99.90
4183;DHT22;2105;52.300;9.182;2024-03-23T05:05:22;6.70;99.90
4183;DHT22;2105;52.300;9.182;2024-03-23T05:07:48;6.70;99.90
4183;DHT22;2105;52.300;9.182;2024-03-23T05:10:14;6.60;99.90
4183;DHT22;2105;52.300;9.182;2024-03-23T05:12:42;6.60;99.90
4183;DHT22;2105;52.300;9.182;2024-03-23T05:15:09;6.60;99.90
4183;DHT22;2105;52.300;9.182;2024-03-23T05:17:35;6.60;99.90
4183;DHT22;2105;52.300;9.182;2024-03-23T05:20:01;6.60;99.90
4183;DHT22;2105;52.300;9.182;2024-03-23T05:22:28;6.60;99.90
4183;DHT22;2105;52.300;9.182;2024-03-23T05:24:54;6.60;99.90
4183;DHT22;2105;52.300;9.182;2024-03-23T05:27:21;6.60;99.90
4183;DHT22;2105;52.300;9.182;2024-03-23T05:29:47;6.60;99.90
4183;DHT22;2105;52.300;9.182;2024-03-23T05:32:15;6.50;99.90
4183;DHT22;2105;52.300;9.182;2024-03-23T05:34:41;6.50;99.90
4183;DHT22;2105;52.300;9.182;2024-03-23T05:37:07;6.50;99.90
4183;DHT22;2105;52.300;9.182;2024-03-23T05:39:33;6.60;99.90
4183;DHT22;2105;52.300;9.182;2024-03-23T05:42:00;6.60;99.90
4183;DHT22;2105;52.300;9.182;2024-03-23T05:44:26;6.60;99.90
4183;DHT22;2105;52.300;9.182;2024-03-23T05:46:53;6.60;99.90
4183;DHT22;2105;52.300;9.182;2024-03-23T05:49:20;6.70;99.90
4183;DHT22;2105;52.300;9.182;2024-03-23T05:51:47;6.60;99.90
4183;DHT22;2105;52.300;9.182;2024-03-23T05:54:12;6.70;99.90
4183;DHT22;2105;52.300;9.182;2024-03-23T05:56:39;6.70;99.90
4183;DHT22;2105;52.300;9.182;2024-03-23T05:59:05;6.70;99.90
4183;DHT22;2105;52.300;9.182;2024-03-23T06:01:32;6.80;99.90
4183;DHT22;2105;52.300;9.182;2024-03-23T06:03:58;6.80;99.90
4183;DHT22;2105;52.300;9.182;2024-03-23T06:06:27;6.80;99.90
4183;DHT22;2105;52.300;9.182;2024-03-23T06:08:55;6.80;99.90
4183;DHT22;2105;52.300;9.182;2024-03-23T06:11:22;6.80;99.90
4183;DHT22;2105;52.300;9.182;2024-03-23T06:13:47;6.80;99.90
4183;DHT22;2105;52.300;9.182;2024-03-23T06:16:14;6.80;99.90
4183;DHT22;2105;52.300;9.182;2024-03-23T06:18:40;6.80;99.90
4183;DHT22;2105;52.300;9.182;2024-03-23T06:21:13;6.80;99.90
4183;DHT22;2105;52.300;9.182;2024-03-23T06:23:40;6.80;99.90
4183;DHT22;2105;52.300;9.182;2024-03-23T06:26:07;6.70;99.90
4183;DHT22;2105;52.300;9.182;2024-03-23T06:28:32;6.70;99.90
4183;DHT22;2105;52.300;9.182;2024-03-23T06:30:59;6.70;99.90
4183;DHT22;2105;52.300;9.182;2024-03-23T06:33:25;6.70;99.90
4183;DHT22;2105;52.300;9.182;2024-03-23T06:35:52;6.70;99.90
4183;DHT22;2105;52.300;9.182;2024-03-23T06:38:18;6.80;99.90
4183;DHT22;2105;52.300;9.182;2024-03-23T06:40:46;6.80;99.90
4183;DHT22;2105;52.300;9.182;2024-03-23T06:43:14;6.80;99.90
4183;DHT22;2105;52.300;9.182;2024-03-23T06:45:40;6.80;99.90
4183;DHT22;2105;52.300;9.182;2024-03-23T06:48:06;6.80;99.90
4183;DHT22;2105;52.300;9.182;2024-03-23T06:50:34;6.80;99.90
4183;DHT22;2105;52.300;9.182;2024-03-23T06:53:00;6.80;99.90
4183;DHT22;2105;52.300;9.182;2024-03-23T06:55:27;6.80;99.90
4183;DHT22;2105;52.300;9.182;2024-03-23T06:57:54;6.80;99.90
4183;DHT22;2105;52.300;9.182;2024-03-23T07:00:21;6.80;99.90
4183;DHT22;2105;52.300;9.182;2024-03-23T07:02:47;6.80;99.90
4183;DHT22;2105;52.300;9.182;2024-03-23T07:05:14;6.80;99.90
4183;DHT22;2105;52.300;9.182;2024-03-23T07:07:40;6.80;99.90
4183;DHT22;2105;52.300;9.182;2024-03-23T07:10:07;6.80;99.90
4183;DHT22;2105;52.300;9.182;2024-03-23T07:12:33;6.80;99.90
4183;DHT22;2105;52.300;9.182;2024-03-23T07:15:01;6.80;99.90
4183;DHT22;2105;52.300;9.182;2024-03-23T07:17:27;6.90;99.90
4183;DHT22;2105;52.300;9.182;2024-03-23T07:19:53;6.90;99.90
4183;DHT22;2105;52.300;9.182;2024-03-23T07:22:19;6.90;99.90
4183;DHT22;2105;52.300;9.182;2024-03-23T07:24:46;7.00;99.90
4183;DHT22;2105;52.300;9.182;2024-03-23T07:27:12;7.00;99.90
4183;DHT22;2105;52.300;9.182;2024-03-23T07:29:38;7.00;99.90
4183;DHT22;2105;52.300;9.182;2024-03-23T07:32:06;7.10;99.90
4183;DHT22;2105;52.300;9.182;2024-03-23T07:34:33;7.10;99.90
4183;DHT22;2105;52.300;9.182;2024-03-23T07:37:02;7.20;99.90
4183;DHT22;2105;52.300;9.182;2024-03-23T07:39:29;7.10;99.90
4183;DHT22;2105;52.300;9.182;2024-03-23T07:41:54;7.10;99.90
4183;DHT22;2105;52.300;9.182;2024-03-23T07:44:21;7.20;99.90
4183;DHT22;2105;52.300;9.182;2024-03-23T07:46:47;7.20;99.90
4183;DHT22;2105;52.300;9.182;2024-03-23T07:49:15;7.20;99.90
4183;DHT22;2105;52.300;9.182;2024-03-23T07:51:41;7.20;99.90
4183;DHT22;2105;52.300;9.182;2024-03-23T07:54:07;7.30;99.90
4183;DHT22;2105;52.300;9.182;2024-03-23T07:56:33;7.30;99.90
4183;DHT22;2105;52.300;9.182;2024-03-23T07:59:00;7.20;99.90
4183;DHT22;2105;52.300;9.182;2024-03-23T08:01:29;7.20;99.90
4183;DHT22;2105;52.300;9.182;2024-03-23T08:03:56;7.20;99.90
4183;DHT22;2105;52.300;9.182;2024-03-23T08:06:23;7.30;99.90
4183;DHT22;2105;52.300;9.182;2024-03-23T08:08:52;7.30;99.90
4183;DHT22;2105;52.300;9.182;2024-03-23T08:11:24;7.40;99.90
4183;DHT22;2105;52.300;9.182;2024-03-23T08:13:51;7.50;99.90
4183;DHT22;2105;52.300;9.182;2024-03-23T08:16:17;7.70;99.90
4183;DHT22;2105;52.300;9.182;2024-03-23T08:18:44;7.70;99.90
4183;DHT22;2105;52.300;9.182;2024-03-23T08:21:10;7.70;99.90
4183;DHT22;2105;52.300;9.182;2024-03-23T08:23:38;7.80;99.90
4183;DHT22;2105;52.300;9.182;2024-03-23T08:26:06;7.80;99.90
4183;DHT22;2105;52.300;9.182;2024-03-23T08:28:33;7.90;99.90
4183;DHT22;2105;52.300;9.182;2024-03-23T08:31:01;8.00;99.90
4183;DHT22;2105;52.300;9.182;2024-03-23T08:33:29;8.10;99.90
4183;DHT22;2105;52.300;9.182;2024-03-23T08:35:57;8.00;99.90
4183;DHT22;2105;52.300;9.182;2024-03-23T08:38:25;8.00;99.90
4183;DHT22;2105;52.300;9.182;2024-03-23T08:40:58;8.20;99.90
4183;DHT22;2105;52.300;9.182;2024-03-23T08:43:25;8.40;99.90
4183;DHT22;2105;52.300;9.182;2024-03-23T08:45:51;8.30;62.70
4183;DHT22;2105;52.300;9.182;2024-03-23T08:48:19;8.20;1.00
4183;DHT22;2105;52.300;9.182;2024-03-23T08:50:45;8.30;93.90
4183;DHT22;2105;52.300;9.182;2024-03-23T08:53:13;8.10;1.00
4183;DHT22;2105;52.300;9.182;2024-03-23T08:55:38;7.90;1.00
4183;DHT22;2105;52.300;9.182;2024-03-23T09:10:38;8.30;99.90
4183;DHT22;2105;52.300;9.182;2024-03-23T09:13:09;8.10;99.90
4183;DHT22;2105;52.300;9.182;2024-03-23T09:15:37;8.00;1.00
4183;DHT22;2105;52.300;9.182;2024-03-23T09:18:17;7.80;1.00
4183;DHT22;2105;52.300;9.182;2024-03-23T09:20:47;7.70;99.90
4183;DHT22;2105;52.300;9.182;2024-03-23T09:23:13;7.80;1.00
4183;DHT22;2105;52.300;9.182;2024-03-23T09:26:02;7.90;99.90
4183;DHT22;2105;52.300;9.182;2024-03-23T09:28:38;7.90;99.90
4183;DHT22;2105;52.300;9.182;2024-03-23T09:31:08;8.00;99.90
4183;DHT22;2105;52.300;9.182;2024-03-23T09:33:49;8.00;99.90
4183;DHT22;2105;52.300;9.182;2024-03-23T09:36:42;8.10;99.90
4183;DHT22;2105;52.300;9.182;2024-03-23T09:39:09;8.40;99.90
4183;DHT22;2105;52.300;9.182;2024-03-23T09:41:35;8.80;94.20
4183;DHT22;2105;52.300;9.182;2024-03-23T09:44:01;8.90;1.00
4183;DHT22;2105;52.300;9.182;2024-03-23T09:46:27;9.00;99.90
4183;DHT22;2105;52.300;9.182;2024-03-23T09:48:55;9.50;99.90
4183;DHT22;2105;52.300;9.182;2024-03-23T09:51:22;9.70;99.90
4183;DHT22;2105;52.300;9.182;2024-03-23T09:53:50;9.90;99.90
4183;DHT22;2105;52.300;9.182;2024-03-23T09:56:17;9.90;24.70
4183;DHT22;2105;52.300;9.182;2024-03-23T09:58:44;9.80;6.20
4183;DHT22;2105;52.300;9.182;2024-03-23T10:01:10;9.90;40.70
4183;DHT22;2105;52.300;9.182;2024-03-23T10:03:43;10.30;81.00
4183;DHT22;2105;52.300;9.182;2024-03-23T10:06:08;10.00;1.00
4183;DHT22;2105;52.300;9.182;2024-03-23T10:08:35;9.40;15.40
4183;DHT22;2105;52.300;9.182;2024-03-23T10:11:13;9.50;99.90
4183;DHT22;2105;52.300;9.182;2024-03-23T10:13:41;9.80;99.90
4183;DHT22;2105;52.300;9.182;2024-03-23T10:16:07;10.10;69.00
4183;DHT22;2105;52.300;9.182;2024-03-23T10:18:37;10.10;1.00
4183;DHT22;2105;52.300;9.182;2024-03-23T10:21:10;10.30;1.00
4183;DHT22;2105;52.300;9.182;2024-03-23T10:23:38;10.50;14.80
4183;DHT22;2105;52.300;9.182;2024-03-23T10:26:16;10.70;1.00
4183;DHT22;2105;52.300;9.182;2024-03-23T10:28:55;10.90;1.00
4183;DHT22;2105;52.300;9.182;2024-03-23T10:31:26;11.00;1.00
4183;DHT22;2105;52.300;9.182;2024-03-23T10:33:53;11.30;1.00
4183;DHT22;2105;52.300;9.182;2024-03-23T10:36:20;11.00;1.00
4183;DHT22;2105;52.300;9.182;2024-03-23T10:38:48;10.60;1.00
4183;DHT22;2105;52.300;9.182;2024-03-23T10:41:17;10.10;1.00
4183;DHT22;2105;52.300;9.182;2024-03-23T10:43:55;9.90;1.00
4183;DHT22;2105;52.300;9.182;2024-03-23T10:46:21;9.80;1.00
4183;DHT22;2105;52.300;9.182;2024-03-23T10:48:49;9.90;1.00
4183;DHT22;2105;52.300;9.182;2024-03-23T10:51:14;10.40;1.00
4183;DHT22;2105;52.300;9.182;2024-03-23T10:53:41;10.90;1.00
4183;DHT22;2105;52.300;9.182;2024-03-23T10:56:08;11.30;1.00
4183;DHT22;2105;52.300;9.182;2024-03-23T10:58:40;11.40;1.00
4183;DHT22;2105;52.300;9.182;2024-03-23T11:01:06;11.30;1.00
4183;DHT22;2105;52.300;9.182;2024-03-23T11:03:34;11.30;1.00
4183;DHT22;2105;52.300;9.182;2024-03-23T11:06:01;10.90;1.00
4183;DHT22;2105;52.300;9.182;2024-03-23T11:08:35;10.60;1.00
4183;DHT22;2105;52.300;9.182;2024-03-23T11:11:15;10.30;1.00
4183;DHT22;2105;52.300;9.182;2024-03-23T11:13:56;10.10;1.00
4183;DHT22;2105;52.300;9.182;2024-03-23T11:16:23;9.90;1.00
4183;DHT22;2105;52.300;9.182;2024-03-23T11:18:50;9.60;1.00
4183;DHT22;2105;52.300;9.182;2024-03-23T11:24:27;8.80;1.00
4183;DHT22;2105;52.300;9.182;2024-03-23T11:26:53;8.20;1.00
4183;DHT22;2105;52.300;9.182;2024-03-23T11:29:21;7.90;99.90
4183;DHT22;2105;52.300;9.182;2024-03-23T11:31:47;7.50;1.00
4183;DHT22;2105;52.300;9.182;2024-03-23T11:34:15;7.30;99.90
4183;DHT22;2105;52.300;9.182;2024-03-23T11:36:41;7.20;1.00
4183;DHT22;2105;52.300;9.182;2024-03-23T11:39:12;7.30;1.00
4183;DHT22;2105;52.300;9.182;2024-03-23T11:41:46;7.50;19.20
4183;DHT22;2105;52.300;9.182;2024-03-23T11:44:21;7.60;1.00
4183;DHT22;2105;52.300;9.182;2024-03-23T11:46:48;7.60;99.90
4183;DHT22;2105;52.300;9.182;2024-03-23T11:49:22;7.50;99.90
4183;DHT22;2105;52.300;9.182;2024-03-23T11:51:48;7.40;1.00
4183;DHT22;2105;52.300;9.182;2024-03-23T11:54:15;7.60;99.90
4183;DHT22;2105;52.300;9.182;2024-03-23T11:56:41;7.90;1.00
4183;DHT22;2105;52.300;9.182;2024-03-23T11:59:37;8.00;99.90
4183;DHT22;2105;52.300;9.182;2024-03-23T12:02:06;7.80;1.00
4183;DHT22;2105;52.300;9.182;2024-03-23T12:04:33;7.50;1.00
4183;DHT22;2105;52.300;9.182;2024-03-23T12:07:11;7.10;99.90
4183;DHT22;2105;52.300;9.182;2024-03-23T12:09:39;6.70;1.00
4183;DHT22;2105;52.300;9.182;2024-03-23T12:12:10;6.20;96.00
4183;DHT22;2105;52.300;9.182;2024-03-23T12:14:39;5.90;99.90
4183;DHT22;2105;52.300;9.182;2024-03-23T12:17:09;5.70;1.00
4183;DHT22;2105;52.300;9.182;2024-03-23T12:19:36;5.60;1.00
4183;DHT22;2105;52.300;9.182;2024-03-23T12:22:03;5.70;99.90
4183;DHT22;2105;52.300;9.182;2024-03-23T12:24:30;5.90;99.90
4183;DHT22;2105;52.300;9.182;2024-03-23T12:27:00;6.00;99.90
4183;DHT22;2105;52.300;9.182;2024-03-23T12:29:28;6.10;1.00
4183;DHT22;2105;52.300;9.182;2024-03-23T12:31:55;6.30;1.00
4183;DHT22;2105;52.300;9.182;2024-03-23T12:34:22;6.30;99.90
4183;DHT22;2105;52.300;9.182;2024-03-23T12:36:48;6.50;58.40
4183;DHT22;2105;52.300;9.182;2024-03-23T12:39:14;6.70;1.00
4183;DHT22;2105;52.300;9.182;2024-03-23T12:41:40;7.20;99.90
4183;DHT22;2105;52.300;9.182;2024-03-23T12:44:06;7.50;99.90
4183;DHT22;2105;52.300;9.182;2024-03-23T12:46:33;7.70;99.90
4183;DHT22;2105;52.300;9.182;2024-03-23T12:49:01;7.90;99.90
4183;DHT22;2105;52.300;9.182;2024-03-23T12:51:28;8.10;1.00
4183;DHT22;2105;52.300;9.182;2024-03-23T12:53:54;8.40;99.90
4183;DHT22;2105;52.300;9.182;2024-03-23T12:56:20;8.50;1.00
4183;DHT22;2105;52.300;9.182;2024-03-23T12:58:47;8.80;1.00
4183;DHT22;2105;52.300;9.182;2024-03-23T13:01:16;9.10;1.00
4183;DHT22;2105;52.300;9.182;2024-03-23T13:03:46;9.40;1.00
4183;DHT22;2105;52.300;9.182;2024-03-23T13:08:41;8.90;99.90
4183;DHT22;2105;52.300;9.182;2024-03-23T13:11:10;8.80;36.30
4183;DHT22;2105;52.300;9.182;2024-03-23T13:13:36;9.30;63.20
4183;DHT22;2105;52.300;9.182;2024-03-23T13:16:03;9.50;1.00
4183;DHT22;2105;52.300;9.182;2024-03-23T13:18:29;9.40;1.00
4183;DHT22;2105;52.300;9.182;2024-03-23T13:20:56;9.20;1.00
4183;DHT22;2105;52.300;9.182;2024-03-23T13:23:21;8.80;1.00
4183;DHT22;2105;52.300;9.182;2024-03-23T13:25:53;8.80;1.00
4183;DHT22;2105;52.300;9.182;2024-03-23T13:28:19;9.30;1.00
4183;DHT22;2105;52.300;9.182;2024-03-23T13:30:52;9.60;1.00
4183;DHT22;2105;52.300;9.182;2024-03-23T13:33:18;9.80;1.00
4183;DHT22;2105;52.300;9.182;2024-03-23T13:35:52;9.80;1.00
4183;DHT22;2105;52.300;9.182;2024-03-23T13:38:18;9.80;1.00
4183;DHT22;2105;52.300;9.182;2024-03-23T13:40:53;9.90;1.00
4183;DHT22;2105;52.300;9.182;2024-03-23T13:43:20;9.60;1.00
4183;DHT22;2105;52.300;9.182;2024-03-23T13:45:47;9.50;1.00
4183;DHT22;2105;52.300;9.182;2024-03-23T13:48:23;9.30;1.00
4183;DHT22;2105;52.300;9.182;2024-03-23T13:50:57;8.90;1.00
4183;DHT22;2105;52.300;9.182;2024-03-23T13:53:23;8.50;7.60
4183;DHT22;2105;52.300;9.182;2024-03-23T13:55:50;7.60;99.90
4183;DHT22;2105;52.300;9.182;2024-03-23T13:58:17;6.80;1.00
4183;DHT22;2105;52.300;9.182;2024-03-23T14:00:44;6.30;1.00
4183;DHT22;2105;52.300;9.182;2024-03-23T14:03:09;5.90;1.00
4183;DHT22;2105;52.300;9.182;2024-03-23T14:05:36;5.60;1.00
4183;DHT22;2105;52.300;9.182;2024-03-23T14:08:04;5.40;1.00
4183;DHT22;2105;52.300;9.182;2024-03-23T14:10:30;5.40;1.00
4183;DHT22;2105;52.300;9.182;2024-03-23T14:12:56;5.40;24.60
4183;DHT22;2105;52.300;9.182;2024-03-23T14:15:24;5.40;99.90
4183;DHT22;2105;52.300;9.182;2024-03-23T14:17:50;5.40;99.90
4183;DHT22;2105;52.300;9.182;2024-03-23T14:20:17;5.40;7.20
4183;DHT22;2105;52.300;9.182;2024-03-23T14:22:42;5.40;1.00
4183;DHT22;2105;52.300;9.182;2024-03-23T14:25:09;5.30;1.00
4183;DHT22;2105;52.300;9.182;2024-03-23T14:27:35;5.40;1.00
4183;DHT22;2105;52.300;9.182;2024-03-23T14:30:03;5.80;1.00
4183;DHT22;2105;52.300;9.182;2024-03-23T14:32:30;6.60;99.90
4183;DHT22;2105;52.300;9.182;2024-03-23T14:34:59;7.30;66.10
4183;DHT22;2105;52.300;9.182;2024-03-23T14:37:26;7.90;1.00
4183;DHT22;2105;52.300;9.182;2024-03-23T14:39:52;8.30;1.40
4183;DHT22;2105;52.300;9.182;2024-03-23T14:42:18;8.70;1.00
4183;DHT22;2105;52.300;9.182;2024-03-23T14:44:44;8.90;99.90
4183;DHT22;2105;52.300;9.182;2024-03-23T14:47:11;9.00;99.90
4183;DHT22;2105;52.300;9.182;2024-03-23T14:49:38;9.30;99.90
4183;DHT22;2105;52.300;9.182;2024-03-23T14:52:05;9.30;99.90
4183;DHT22;2105;52.300;9.182;2024-03-23T14:54:30;9.30;99.90
4183;DHT22;2105;52.300;9.182;2024-03-23T14:56:57;9.30;99.90
4183;DHT22;2105;52.300;9.182;2024-03-23T14:59:23;9.10;99.90
4183;DHT22;2105;52.300;9.182;2024-03-23T15:01:50;9.00;99.90
4183;DHT22;2105;52.300;9.182;2024-03-23T15:04:16;8.70;99.90
4183;DHT22;2105;52.300;9.182;2024-03-23T15:06:44;8.60;99.90
4183;DHT22;2105;52.300;9.182;2024-03-23T15:09:11;8.40;99.90
4183;DHT22;2105;52.300;9.182;2024-03-23T15:11:39;8.30;99.90
4183;DHT22;2105;52.300;9.182;2024-03-23T15:14:14;8.00;99.90
4183;DHT22;2105;52.300;9.182;2024-03-23T15:16:39;7.20;1.00
4183;DHT22;2105;52.300;9.182;2024-03-23T15:19:08;6.10;99.90
4183;DHT22;2105;52.300;9.182;2024-03-23T15:21:34;5.50;1.00
4183;DHT22;2105;52.300;9.182;2024-03-23T15:24:02;5.30;1.00
4183;DHT22;2105;52.300;9.182;2024-03-23T15:26:28;5.30;99.90
4183;DHT22;2105;52.300;9.182;2024-03-23T15:28:54;5.30;99.90
4183;DHT22;2105;52.300;9.182;2024-03-23T15:31:35;5.40;1.00
4183;DHT22;2105;52.300;9.182;2024-03-23T15:34:02;5.50;99.90
4183;DHT22;2105;52.300;9.182;2024-03-23T15:36:27;5.70;1.00
4183;DHT22;2105;52.300;9.182;2024-03-23T15:38:54;5.70;60.10
4183;DHT22;2105;52.300;9.182;2024-03-23T15:41:21;5.90;36.40
4183;DHT22;2105;52.300;9.182;2024-03-23T15:43:55;6.10;99.90
4183;DHT22;2105;52.300;9.182;2024-03-23T15:46:21;6.20;1.00
4183;DHT22;2105;52.300;9.182;2024-03-23T15:48:47;6.10;99.90
4183;DHT22;2105;52.300;9.182;2024-03-23T15:51:14;6.00;99.90
4183;DHT22;2105;52.300;9.182;2024-03-23T15:53:41;5.90;1.00
4183;DHT22;2105;52.300;9.182;2024-03-23T15:56:07;5.90;99.90
4183;DHT22;2105;52.300;9.182;2024-03-23T15:58:35;6.00;99.90
4183;DHT22;2105;52.300;9.182;2024-03-23T16:01:01;6.10;99.90
4183;DHT22;2105;52.300;9.182;2024-03-23T16:03:28;6.20;1.00
4183;DHT22;2105;52.300;9.182;2024-03-23T16:05:56;6.30;1.00
4183;DHT22;2105;52.300;9.182;2024-03-23T16:08:23;6.30;1.00
4183;DHT22;2105;52.300;9.182;2024-03-23T16:10:49;6.30;1.00
4183;DHT22;2105;52.300;9.182;2024-03-23T16:13:15;6.30;99.90
4183;DHT22;2105;52.300;9.182;2024-03-23T16:15:43;6.30;99.90
4183;DHT22;2105;52.300;9.182;2024-03-23T16:18:09;6.40;99.90
4183;DHT22;2105;52.300;9.182;2024-03-23T16:20:36;6.40;1.00
4183;DHT22;2105;52.300;9.182;2024-03-23T16:23:02;6.30;1.00
4183;DHT22;2105;52.300;9.182;2024-03-23T16:25:28;6.20;1.00
4183;DHT22;2105;52.300;9.182;2024-03-23T16:27:55;6.30;1.00
4183;DHT22;2105;52.300;9.182;2024-03-23T16:30:21;6.20;1.00
4183;DHT22;2105;52.300;9.182;2024-03-23T16:32:49;6.10;1.00
4183;DHT22;2105;52.300;9.182;2024-03-23T16:35:16;6.30;99.90
4183;DHT22;2105;52.300;9.182;2024-03-23T16:37:43;6.40;1.00
4183;DHT22;2105;52.300;9.182;2024-03-23T16:40:09;6.40;99.90
4183;DHT22;2105;52.300;9.182;2024-03-23T16:42:37;6.50;99.90
4183;DHT22;2105;52.300;9.182;2024-03-23T16:45:03;6.50;99.90
4183;DHT22;2105;52.300;9.182;2024-03-23T16:47:30;6.50;99.90
4183;DHT22;2105;52.300;9.182;2024-03-23T16:49:57;6.50;99.90
4183;DHT22;2105;52.300;9.182;2024-03-23T16:52:24;6.50;10.10
4183;DHT22;2105;52.300;9.182;2024-03-23T16:54:50;6.40;99.90
4183;DHT22;2105;52.300;9.182;2024-03-23T16:57:17;6.40;99.90
4183;DHT22;2105;52.300;9.182;2024-03-23T16:59:43;6.40;99.90
4183;DHT22;2105;52.300;9.182;2024-03-23T17:02:10;6.40;1.00
4183;DHT22;2105;52.300;9.182;2024-03-23T17:04:36;6.30;1.00
4183;DHT22;2105;52.300;9.182;2024-03-23T17:07:04;6.30;1.00
4183;DHT22;2105;52.300;9.182;2024-03-23T17:09:30;6.30;1.00
4183;DHT22;2105;52.300;9.182;2024-03-23T17:11:57;6.30;1.00
4183;DHT22;2105;52.300;9.182;2024-03-23T17:14:22;6.30;1.00
4183;DHT22;2105;52.300;9.182;2024-03-23T17:16:51;6.30;1.00
4183;DHT22;2105;52.300;9.182;2024-03-23T17:19:16;6.30;99.90
4183;DHT22;2105;52.300;9.182;2024-03-23T17:21:43;6.30;99.90
4183;DHT22;2105;52.300;9.182;2024-03-23T17:24:11;6.30;99.90
4183;DHT22;2105;52.300;9.182;2024-03-23T17:26:37;6.30;1.00
4183;DHT22;2105;52.300;9.182;2024-03-23T17:29:03;6.30;99.90
4183;DHT22;2105;52.300;9.182;2024-03-23T17:31:30;5.60;1.00
4183;DHT22;2105;52.300;9.182;2024-03-23T17:33:56;4.90;99.90
4183;DHT22;2105;52.300;9.182;2024-03-23T17:36:22;4.60;1.00